Ora Direzione Vento Velocita' Vento Media Vento Raffica Max. Temperatura Wind Chill Pioggia Pressione
15:08:05.00 °(N)8.1 Kts6.56 Kts10.2 Kts18.0 °C17.83 °C0.0 mm1024.7 Hpa
14:47:11.00 °(N)7.0 Kts6.43 Kts10.2 Kts17.7 °C17.63 °C0.0 mm1026.5 Hpa
14:27:35.00 °(N)8.0 Kts6.63 Kts10.2 Kts16.8 °C16.36 °C0.0 mm1025.5 Hpa
14:07:00.00 °(N)7.5 Kts6.0 Kts9.9 Kts17.3 °C17.01 °C0.0 mm1024.6 Hpa
13:47:16.01 °(N)6.9 Kts5.46 Kts8.2 Kts17.7 °C17.63 °C0.0 mm1027.5 Hpa
13:27:54.00 °(N)4.7 Kts4.66 Kts7.6 Kts18.1 °C18.5 °C0.0 mm1027.5 Hpa
13:07:35.00 °(N)6.8 Kts6.3 Kts7.5 Kts17.8 °C17.75 °C0.0 mm1027.2 Hpa
12:47:02.00 °(N)4.7 Kts4.43 Kts7.0 Kts18.7 °C19.21 °C0.0 mm1026.8 Hpa
12:27:44.0349 °(N)2.8 Kts3.03 Kts7.0 Kts19.2 °C20.21 °C0.0 mm1027.6 Hpa
12:08:00.00 °(N)2.6 Kts3.63 Kts13.0 Kts16.2 °C16.86 °C0.0 mm1024.9 Hpa
11:47:41.00 °(N)2.6 Kts3.63 Kts13.0 Kts16.2 °C16.86 °C0.0 mm1024.9 Hpa
11:27:14.00 °(N)2.6 Kts3.63 Kts13.0 Kts16.2 °C16.86 °C0.0 mm1024.9 Hpa
11:06:58.00 °(N)2.6 Kts3.63 Kts13.0 Kts16.2 °C16.86 °C0.0 mm1024.9 Hpa
10:47:50.00 °(N)2.6 Kts3.63 Kts13.0 Kts16.2 °C16.86 °C0.0 mm1024.9 Hpa
10:27:25.00 °(N)2.6 Kts3.63 Kts13.0 Kts16.2 °C16.86 °C0.0 mm1024.9 Hpa
10:07:08.00 °(N)2.6 Kts3.63 Kts13.0 Kts16.2 °C16.86 °C0.0 mm1024.9 Hpa
09:48:01.00 °(N)2.6 Kts3.63 Kts13.0 Kts16.2 °C16.86 °C0.0 mm1024.9 Hpa
09:27:40.00 °(N)2.6 Kts3.63 Kts13.0 Kts16.2 °C16.86 °C0.0 mm1024.9 Hpa
09:07:28.00 °(N)2.6 Kts3.63 Kts13.0 Kts16.2 °C16.86 °C0.0 mm1024.9 Hpa
08:47:05.00 °(N)2.6 Kts3.63 Kts13.0 Kts16.2 °C16.86 °C0.0 mm1024.9 Hpa